Latest Weather Observations for Witchcliffe

IDW60801

Issued at 8:03 pm WST Monday 26 September 2016 (issued every 30 minutes, with the page automatically refreshed every 10 minutes)

About weather observations | Map of weather stations | Latest weather observations for WA | Other Formats
Station Details ID: 009746 Name: WITCHCLIFFE Lat: -34.03 Lon: 115.10 Height: 80.0 m
Data from the previous 72 hours. | See also: Recent months at Witchcliffe
Date/Time
WST
Temp
°C
App
Temp
°C
Dew
Point
°C
Rel
Hum
%
Delta-T
°C
Wind Press
QNH
hPa
Press
MSL
hPa
Rain since
9am
mm
Dir  Spd
km/h
Gust
km/h
Spd
kts
Gust
kts
26/08:00pm 12.8 11.4 9.6 81 1.6 W 7 11 4 6 1016.8 1016.8 1.4
26/07:30pm 12.8 11.5 9.8 82 1.5 W 7 11 4 6 1016.6 1016.6 1.4
26/07:00pm 12.5 12.1 9.9 84 1.3 WNW 2 9 1 5 1016.5 1016.5 1.4
26/06:30pm 12.7 11.8 10.6 87 1.1 W 6 13 3 7 1016.3 1016.3 1.4
26/06:00pm 12.8 12.0 10.9 88 1.0 WNW 6 13 3 7 1016.4 1016.4 1.4
26/05:30pm 12.8 11.0 10.9 88 1.0 W 11 19 6 10 1016.4 1016.4 1.4
26/05:00pm 12.8 12.1 12.0 95 0.4 WNW 7 13 4 7 1016.5 1016.5 1.4
26/04:30pm 12.5 10.5 11.4 93 0.6 WSW 13 30 7 16 1016.3 1016.3 1.4
26/04:00pm 12.9 8.5 10.3 84 1.3 WSW 24 39 13 21 1016.4 1016.4 1.2
26/03:30pm 16.1 12.8 11.5 74 2.5 W 20 35 11 19 1015.9 1015.9 0.2
26/03:00pm 15.2 11.2 10.4 73 2.5 WNW 22 37 12 20 1016.1 1016.1 0.2
26/02:30pm 15.0 11.0 10.4 74 2.4 W 22 33 12 18 1016.1 1016.1 0.0
26/02:00pm 16.6 11.5 10.5 67 3.2 WNW 28 44 15 24 1016.1 1016.1 0.0
26/01:30pm 15.9 10.3 10.2 69 3.0 WNW 30 44 16 24 1016.2 1016.2 0.0
26/01:00pm 15.6 10.7 9.9 69 3.0 WNW 26 39 14 21 1016.3 1016.3 0.0
26/12:30pm 15.4 10.1 9.7 69 3.0 WNW 28 41 15 22 1016.7 1016.7 0.0
26/12:05pm 15.7 9.9 9.6 67 3.2 W 30 52 16 28 1016.8 1016.8 0.0
26/12:00pm 16.1 10.9 10.4 69 3.0 W 28 41 15 22 1016.8 1016.8 0.0
26/11:30am 16.2 11.0 10.1 67 3.2 WNW 28 48 15 26 1016.8 1016.8 0.0
26/11:28am 15.9 10.4 9.3 65 3.4 WNW 28 48 15 26 1016.9 1016.9 0.0
26/11:00am 15.4 9.6 9.5 68 3.1 W 30 44 16 24 1017.1 1017.1 0.0
26/10:30am 15.0 10.9 10.2 73 2.5 WNW 22 39 12 21 1017.4 1017.4 0.0
26/10:01am 14.7 9.4 9.7 72 2.6 W 28 48 15 26 1017.5 1017.5 0.0
26/10:00am 14.8 9.9 9.8 72 2.6 W 26 48 14 26 1017.5 1017.5 0.0
26/09:30am 14.3 10.3 10.5 78 2.0 WNW 22 43 12 23 1017.7 1017.7 0.0
26/09:00am 14.1 10.4 9.5 74 2.4 WNW 19 39 10 21 1017.4 1017.4 0.2
26/08:30am 13.0 8.4 9.6 80 1.7 W 24 39 13 21 1017.8 1017.8 0.2
26/08:00am 12.6 8.6 9.2 80 1.7 W 20 30 11 16 1017.5 1017.5 0.2
26/07:30am 12.9 8.5 9.0 77 2.0 WNW 22 41 12 22 1017.5 1017.5 0.0
26/07:00am 12.1 8.1 8.9 81 1.6 W 20 35 11 19 1017.5 1017.5 0.0
26/06:30am 13.1 8.6 7.1 67 2.9 W 20 32 11 17 1017.3 1017.3 0.0
26/06:00am 12.6 7.8 7.5 71 2.5 WNW 22 35 12 19 1017.1 1017.1 0.0
26/05:30am 12.5 8.7 7.4 71 2.5 WNW 17 26 9 14 1017.0 1017.0 0.0
26/05:00am 12.7 8.4 7.0 68 2.8 WNW 19 28 10 15 1017.1 1017.1 0.0
26/04:30am 12.6 9.1 7.1 69 2.7 WNW 15 28 8 15 1017.2 1017.2 0.0
26/04:00am 12.6 8.4 5.8 63 3.2 WNW 17 28 9 15 1017.0 1017.0 0.0
26/03:30am 12.4 8.2 5.8 64 3.1 WNW 17 32 9 17 1017.1 1017.1 0.0
26/03:00am 12.4 8.4 6.5 67 2.8 WNW 17 32 9 17 1017.4 1017.4 0.0
26/02:30am 12.2 8.4 6.0 66 2.9 WNW 15 22 8 12 1017.6 1017.6 0.0
26/02:00am 12.1 7.9 5.5 64 3.1 WNW 17 26 9 14 1018.2 1018.2 0.0
26/01:30am 11.9 7.7 5.5 65 3.0 WNW 17 24 9 13 1018.3 1018.3 0.0
26/01:00am 11.3 7.2 4.5 63 3.1 WNW 15 26 8 14 1018.5 1018.5 0.0
26/12:30am 11.5 7.9 6.6 72 2.3 WNW 15 28 8 15 1018.6 1018.6 0.0
26/12:00am 11.1 8.2 6.6 74 2.1 WNW 11 17 6 9 1019.1 1019.1 0.0
 
Date/Time
WST
Temp
°C
App
Temp
°C
Dew
Point
°C
Rel
Hum
%
Delta-T
°C
Wind Press
QNH
hPa
Press
MSL
hPa
Rain since
9am
mm
Dir  Spd
km/h
Gust
km/h
Spd
kts
Gust
kts
25/11:30pm 11.1 8.5 6.3 72 2.3 WNW 9 17 5 9 1019.0 1019.0 0.0
25/11:00pm 10.6 8.2 5.4 70 2.4 NW 7 13 4 7 1019.8 1019.9 0.0
25/10:30pm 10.6 7.7 4.9 68 2.6 WNW 9 20 5 11 1020.2 1020.2 0.0
25/10:00pm 10.0 7.7 5.6 74 2.0 WNW 7 11 4 6 1020.6 1020.6 0.0
25/09:30pm 7.9 5.6 4.8 81 1.4 WNW 6 9 3 5 1020.8 1020.8 0.0
25/09:00pm 7.4 6.1 4.2 80 1.4 CALM 0 0 0 0 1020.7 1020.7 0.0
25/08:30pm 7.9 6.6 3.9 76 1.7 CALM 0 0 0 0 1020.5 1020.5 0.0
25/08:00pm 8.6 7.2 3.8 72 2.1 CALM 0 0 0 0 1020.8 1020.8 0.0
25/07:30pm 8.9 6.3 3.1 67 2.5 W 6 7 3 4 1020.7 1020.7 0.0
25/07:00pm 9.6 7.7 3.1 64 2.8 W 2 7 1 4 1020.5 1020.5 0.0
25/06:30pm 10.2 7.4 3.0 61 3.1 WSW 7 11 4 6 1020.5 1020.5 0.0
25/06:00pm 11.1 7.6 3.4 59 3.4 WSW 11 20 6 11 1020.2 1020.2 0.0
25/05:30pm 11.9 7.7 3.9 58 3.6 SW 15 22 8 12 1020.1 1020.1 0.0
25/05:00pm 12.3 8.7 5.0 61 3.4 SW 13 20 7 11 1019.8 1019.9 0.0
25/04:30pm 12.1 8.7 3.9 57 3.7 WSW 11 19 6 10 1019.6 1019.7 0.0
25/04:00pm 12.6 7.7 4.3 57 3.8 SSW 19 30 10 16 1019.5 1019.5 0.0
25/03:30pm 13.6 9.6 4.7 55 4.1 SSW 15 30 8 16 1019.2 1019.2 0.0
25/03:00pm 14.2 9.8 5.0 54 4.3 WSW 17 28 9 15 1019.1 1019.1 0.0
25/02:30pm 14.0 9.7 3.2 48 4.9 SSW 15 20 8 11 1018.8 1018.8 0.0
25/02:00pm 13.5 8.3 2.7 48 4.8 SSW 19 30 10 16 1018.9 1018.9 0.0
25/01:30pm 14.3 9.3 1.6 42 5.5 SW 17 28 9 15 1018.8 1018.8 0.0
25/01:00pm 14.1 10.5 4.9 54 4.3 S 13 22 7 12 1018.9 1018.9 0.0
25/12:30pm 13.4 8.4 3.5 51 4.5 SSE 19 26 10 14 1019.4 1019.4 0.0
25/12:00pm 12.3 6.8 3.8 56 3.8 S 22 33 12 18 1019.5 1019.5 0.0
25/11:30am 13.6 9.6 3.1 49 4.7 S 13 20 7 11 1019.3 1019.3 0.0
25/11:00am 12.9 7.7 3.6 53 4.2 SSW 20 30 11 16 1019.7 1019.8 0.0
25/10:30am 12.7 6.9 -0.2 41 5.3 SSE 20 28 11 15 1019.8 1019.9 0.0
25/10:00am 13.2 7.5 2.7 49 4.6 SSE 22 33 12 18 1019.8 1019.9 0.0
25/09:30am 12.5 7.3 2.4 50 4.4 SSE 19 30 10 16 1019.5 1019.5 0.0
25/09:00am 10.7 5.6 4.2 64 2.9 S 20 32 11 17 1019.6 1019.7 9.4
25/08:30am 10.8 6.7 2.1 55 3.7 SSE 13 22 7 12 1019.2 1019.2 9.4
25/08:00am 10.5 5.6 1.9 55 3.6 S 17 24 9 13 1018.8 1018.8 9.4
25/07:30am 10.2 5.8 2.6 59 3.3 S 15 24 8 13 1018.5 1018.5 9.4
25/07:00am 8.2 4.0 1.8 64 2.6 SSE 13 17 7 9 1018.1 1018.1 9.4
25/06:30am 7.7 4.0 2.4 69 2.2 S 11 19 6 10 1017.9 1017.9 9.4
25/06:00am 8.0 5.1 2.7 69 2.2 S 7 11 4 6 1017.4 1017.4 9.4
25/05:30am 7.9 4.2 2.6 69 2.2 S 11 15 6 8 1017.1 1017.1 9.4
25/05:00am 7.4 4.2 2.9 73 1.9 S 9 13 5 7 1016.8 1016.8 9.4
25/04:30am 7.4 4.1 2.3 70 2.1 S 9 13 5 7 1016.7 1016.7 9.4
25/04:00am 7.8 3.3 2.3 68 2.3 S 15 20 8 11 1016.4 1016.4 9.4
25/03:30am 9.0 4.0 3.6 69 2.3 S 19 30 10 16 1016.0 1016.0 9.4
25/03:00am 9.0 4.6 5.0 76 1.8 S 17 24 9 13 1015.6 1015.6 9.4
25/02:30am 8.9 5.1 5.6 80 1.5 S 15 20 8 11 1015.3 1015.3 9.4
25/02:00am 9.0 5.1 7.3 89 0.8 S 17 22 9 12 1015.1 1015.1 9.4
25/01:30am 9.1 6.7 8.6 97 0.2 S 11 17 6 9 1014.7 1014.7 9.4
25/01:00am 9.3 6.2 9.0 98 0.1 S 15 24 8 13 1014.5 1014.5 9.4
25/12:30am 9.6 5.9 9.5 99 0.0 S 19 28 10 15 1014.2 1014.2 9.4
25/12:00am 10.1 6.9 9.8 98 0.2 S 17 24 9 13 1013.9 1013.9 9.0
 
Date/Time
WST
Temp
°C
App
Temp
°C
Dew
Point
°C
Rel
Hum
%
Delta-T
°C
Wind Press
QNH
hPa
Press
MSL
hPa
Rain since
9am
mm
Dir  Spd
km/h
Gust
km/h
Spd
kts
Gust
kts
24/11:30pm 10.7 8.7 10.1 96 0.3 SSW 11 22 6 12 1013.6 1013.6 6.0
24/11:00pm 10.6 10.7 10.0 96 0.3 CALM 0 0 0 0 1013.4 1013.4 5.8
24/10:30pm 10.6 8.6 10.1 97 0.3 WSW 11 17 6 9 1013.5 1013.5 5.6
24/10:00pm 10.4 8.8 10.1 98 0.2 NW 9 17 5 9 1013.7 1013.7 5.4
24/09:30pm 10.3 8.9 9.7 96 0.3 NNW 7 11 4 6 1013.6 1013.6 5.0
24/09:00pm 10.3 8.8 9.2 93 0.5 NW 7 13 4 7 1013.7 1013.7 5.0
24/08:30pm 10.1 8.3 8.0 87 1.0 WNW 7 13 4 7 1013.7 1013.7 2.6
24/08:00pm 10.5 6.2 7.0 79 1.7 W 19 30 10 16 1013.5 1013.5 1.0
24/07:30pm 12.2 9.9 7.5 73 2.3 NW 9 15 5 8 1012.9 1012.9 0.0
24/07:00pm 12.0 9.2 7.1 72 2.4 NW 11 17 6 9 1012.8 1012.8 0.0
24/06:30pm 12.0 9.2 7.1 72 2.4 NW 11 19 6 10 1012.8 1012.8 0.0
24/06:00pm 12.2 9.5 7.5 73 2.3 NW 11 19 6 10 1012.7 1012.7 0.0
24/05:30pm 12.8 9.1 7.9 72 2.4 NW 17 28 9 15 1012.7 1012.7 0.0
24/05:00pm 12.9 9.0 7.1 68 2.8 NW 17 32 9 17 1012.6 1012.6 0.0
24/04:30pm 12.7 9.2 7.2 69 2.7 NW 15 24 8 13 1012.6 1012.6 0.0
24/04:00pm 12.2 8.8 7.5 73 2.3 NW 15 22 8 12 1012.8 1012.8 0.0
24/03:30pm 12.8 7.7 5.9 63 3.3 NW 22 37 12 20 1012.8 1012.8 0.0
24/03:00pm 13.9 9.3 6.5 61 3.6 NW 20 33 11 18 1012.9 1012.9 0.0
24/02:30pm 13.7 8.4 5.1 56 4.0 NW 22 33 12 18 1013.1 1013.1 0.0
24/02:00pm 14.5 9.7 5.8 56 4.2 NW 20 37 11 20 1013.3 1013.3 0.0
24/01:30pm 13.5 8.6 5.2 57 3.9 NW 20 30 11 16 1013.7 1013.7 0.0
24/01:00pm 13.9 9.2 6.0 59 3.8 WNW 20 32 11 17 1014.1 1014.1 0.0
24/12:30pm 13.9 8.8 6.0 59 3.8 NW 22 32 12 17 1014.4 1014.4 0.0
24/12:00pm 14.5 9.9 6.3 58 4.0 NW 20 35 11 19 1014.8 1014.8 0.0
24/11:30am 13.8 9.1 5.9 59 3.8 NNW 20 33 11 18 1015.0 1015.0 0.0
24/11:00am 13.0 7.7 5.2 59 3.6 NNW 22 37 12 20 1015.3 1015.3 0.0
24/10:30am 12.3 7.4 5.0 61 3.4 NW 20 32 11 17 1015.6 1015.6 0.0
24/10:00am 12.5 8.0 5.9 64 3.1 NW 19 28 10 15 1016.0 1016.0 0.0
24/09:30am 12.0 7.7 5.4 64 3.1 NW 17 26 9 14 1016.1 1016.1 0.0
24/09:00am 11.5 7.9 6.6 72 2.3 NNW 15 19 8 10 1016.3 1016.3 5.6
24/08:30am 9.9 7.5 8.7 92 0.6 N 11 17 6 9 1016.4 1016.4 5.6
24/08:00am 9.0 6.9 8.4 96 0.3 N 9 13 5 7 1016.4 1016.4 5.6
24/07:30am 8.5 6.0 8.4 99 0.0 N 11 17 6 9 1016.1 1016.1 5.6
24/07:00am 7.2 4.8 7.1 99 0.0 N 9 9 5 5 1016.0 1016.0 5.6
24/06:30am 7.1 5.1 7.0 99 0.0 NNW 7 9 4 5 1015.8 1015.8 5.6
24/06:00am 7.1 3.9 7.0 99 0.0 N 13 17 7 9 1015.9 1015.9 5.6
24/05:30am 5.8 3.1 5.7 99 0.0 N 9 11 5 6 1015.8 1015.8 5.6
24/05:00am 6.3 3.7 6.2 99 0.0 N 9 13 5 7 1015.8 1015.8 5.4
24/04:30am 5.4 3.6 5.3 99 0.0 WNW 4 7 2 4 1015.8 1015.8 5.4
24/04:00am 4.5 1.9 4.4 99 0.0 NNW 7 9 4 5 1015.7 1015.7 5.4
24/03:30am 4.7 2.2 4.6 99 0.0 NNW 7 9 4 5 1015.7 1015.7 5.4
24/03:00am 4.7 3.5 4.6 99 0.0 CALM 0 0 0 0 1015.8 1015.8 5.2
24/02:30am 5.3 4.2 5.2 99 0.0 CALM 0 0 0 0 1016.1 1016.1 5.2
24/02:00am 4.7 3.5 4.6 99 0.0 CALM 0 0 0 0 1016.2 1016.2 5.2
24/01:30am 5.5 4.5 5.4 99 0.0 CALM 0 0 0 0 1016.2 1016.2 5.2
24/01:00am 4.8 3.6 4.7 99 0.0 CALM 0 0 0 0 1016.3 1016.3 5.2
24/12:30am 4.3 3.0 4.2 99 0.0 CALM 0 0 0 0 1016.4 1016.4 5.2
24/12:00am 5.0 3.9 4.9 99 0.0 CALM 0 0 0 0 1016.6 1016.6 5.2
 
Date/Time
WST
Temp
°C
App
Temp
°C
Dew
Point
°C
Rel
Hum
%
Delta-T
°C
Wind Press
QNH
hPa
Press
MSL
hPa
Rain since
9am
mm
Dir  Spd
km/h
Gust
km/h
Spd
kts
Gust
kts
23/11:30pm 4.7 3.5 4.6 99 0.0 CALM 0 0 0 0 1016.8 1016.8 5.2
23/11:00pm 4.8 3.6 4.5 98 0.1 CALM 0 0 0 0 1017.1 1017.1 5.2
23/10:30pm 4.9 3.7 4.8 99 0.0 CALM 0 0 0 0 1017.5 1017.5 5.2
23/10:00pm 4.2 2.8 3.8 97 0.2 CALM 0 0 0 0 1017.4 1017.4 5.2
23/09:30pm 4.7 3.4 4.1 96 0.3 CALM 0 0 0 0 1017.6 1017.6 5.2
23/09:00pm 5.2 2.9 4.6 96 0.3 N 6 7 3 4 1017.7 1017.7 5.2
23/08:30pm 4.7 3.3 3.8 94 0.4 CALM 0 0 0 0 1017.7 1017.7 5.2

Other Formats:

Comma delimited format used in spreadsheet applications
http://www.bom.gov.au/fwo/IDW60801/IDW60801.95641.axf

JavaScript Object Notation format (JSON) in row-major order
http://www.bom.gov.au/fwo/IDW60801/IDW60801.95641.json